sensor_id;sensor_type;location;lat;lon;timestamp;P1;durP1;ratioP1;P2;durP2;ratioP2
68921;SDS011;55959;51.244;5.724;2022-11-15T00:00:50;9.00;;;8.10;;
68921;SDS011;55959;51.244;5.724;2022-11-15T00:03:17;9.37;;;8.37;;
68921;SDS011;55959;51.244;5.724;2022-11-15T00:05:45;8.33;;;7.23;;
68921;SDS011;55959;51.244;5.724;2022-11-15T00:08:12;8.80;;;7.93;;
68921;SDS011;55959;51.244;5.724;2022-11-15T00:10:37;9.57;;;8.47;;
68921;SDS011;55959;51.244;5.724;2022-11-15T00:13:04;10.40;;;8.03;;
68921;SDS011;55959;51.244;5.724;2022-11-15T00:15:40;9.00;;;8.10;;
68921;SDS011;55959;51.244;5.724;2022-11-15T00:18:06;9.73;;;8.73;;
68921;SDS011;55959;51.244;5.724;2022-11-15T00:20:37;10.47;;;8.73;;
68921;SDS011;55959;51.244;5.724;2022-11-15T00:23:03;10.13;;;8.20;;
68921;SDS011;55959;51.244;5.724;2022-11-15T00:25:30;9.53;;;8.53;;
68921;SDS011;55959;51.244;5.724;2022-11-15T00:27:56;9.23;;;8.00;;
68921;SDS011;55959;51.244;5.724;2022-11-15T00:30:23;10.80;;;8.77;;
68921;SDS011;55959;51.244;5.724;2022-11-15T00:32:49;8.80;;;7.80;;
68921;SDS011;55959;51.244;5.724;2022-11-15T00:35:15;11.87;;;8.80;;
68921;SDS011;55959;51.244;5.724;2022-11-15T00:37:41;8.73;;;7.83;;
68921;SDS011;55959;51.244;5.724;2022-11-15T00:40:07;9.13;;;7.93;;
68921;SDS011;55959;51.244;5.724;2022-11-15T00:42:34;8.90;;;8.00;;
68921;SDS011;55959;51.244;5.724;2022-11-15T00:44:59;8.17;;;7.37;;
68921;SDS011;55959;51.244;5.724;2022-11-15T00:47:25;7.90;;;7.17;;
68921;SDS011;55959;51.244;5.724;2022-11-15T00:49:51;9.00;;;8.10;;
68921;SDS011;55959;51.244;5.724;2022-11-15T00:52:16;8.10;;;7.30;;
68921;SDS011;55959;51.244;5.724;2022-11-15T00:54:42;9.37;;;7.87;;
68921;SDS011;55959;51.244;5.724;2022-11-15T00:57:08;8.77;;;7.83;;
68921;SDS011;55959;51.244;5.724;2022-11-15T00:59:34;9.33;;;7.37;;
68921;SDS011;55959;51.244;5.724;2022-11-15T01:02:00;9.93;;;8.87;;
68921;SDS011;55959;51.244;5.724;2022-11-15T01:04:26;9.23;;;8.13;;
68921;SDS011;55959;51.244;5.724;2022-11-15T01:06:52;9.70;;;8.70;;
68921;SDS011;55959;51.244;5.724;2022-11-15T01:09:18;9.20;;;8.30;;
68921;SDS011;55959;51.244;5.724;2022-11-15T01:11:44;8.20;;;7.40;;
68921;SDS011;55959;51.244;5.724;2022-11-15T01:14:10;9.47;;;8.13;;
68921;SDS011;55959;51.244;5.724;2022-11-15T01:16:36;8.03;;;6.83;;
68921;SDS011;55959;51.244;5.724;2022-11-15T01:19:02;7.90;;;7.10;;
68921;SDS011;55959;51.244;5.724;2022-11-15T01:21:28;8.97;;;8.07;;
68921;SDS011;55959;51.244;5.724;2022-11-15T01:23:54;8.40;;;7.50;;
68921;SDS011;55959;51.244;5.724;2022-11-15T01:26:21;8.60;;;7.70;;
68921;SDS011;55959;51.244;5.724;2022-11-15T01:28:49;9.00;;;8.10;;
68921;SDS011;55959;51.244;5.724;2022-11-15T01:31:16;8.60;;;7.70;;
68921;SDS011;55959;51.244;5.724;2022-11-15T01:33:44;8.87;;;7.67;;
68921;SDS011;55959;51.244;5.724;2022-11-15T01:36:14;8.70;;;7.80;;
68921;SDS011;55959;51.244;5.724;2022-11-15T01:38:56;9.17;;;7.60;;
68921;SDS011;55959;51.244;5.724;2022-11-15T01:41:24;9.70;;;7.20;;
68921;SDS011;55959;51.244;5.724;2022-11-15T01:43:54;7.60;;;6.90;;
68921;SDS011;55959;51.244;5.724;2022-11-15T01:46:40;9.17;;;8.10;;
68921;SDS011;55959;51.244;5.724;2022-11-15T01:49:18;8.17;;;6.47;;
68921;SDS011;55959;51.244;5.724;2022-11-15T01:51:46;6.57;;;5.97;;
68921;SDS011;55959;51.244;5.724;2022-11-15T01:54:13;8.00;;;6.67;;
68921;SDS011;55959;51.244;5.724;2022-11-15T01:56:49;8.00;;;7.30;;
68921;SDS011;55959;51.244;5.724;2022-11-15T01:59:24;7.37;;;6.30;;
68921;SDS011;55959;51.244;5.724;2022-11-15T02:01:51;7.70;;;6.33;;
68921;SDS011;55959;51.244;5.724;2022-11-15T02:04:22;7.37;;;6.37;;
68921;SDS011;55959;51.244;5.724;2022-11-15T02:07:16;7.53;;;6.73;;
68921;SDS011;55959;51.244;5.724;2022-11-15T02:09:44;6.63;;;6.00;;
68921;SDS011;55959;51.244;5.724;2022-11-15T02:12:13;8.77;;;7.20;;
68921;SDS011;55959;51.244;5.724;2022-11-15T02:14:44;8.20;;;6.67;;
68921;SDS011;55959;51.244;5.724;2022-11-15T02:17:20;7.47;;;6.67;;
68921;SDS011;55959;51.244;5.724;2022-11-15T02:31:20;7.00;;;5.53;;
68921;SDS011;55959;51.244;5.724;2022-11-15T02:43:28;6.50;;;5.07;;
68921;SDS011;55959;51.244;5.724;2022-11-15T02:49:32;8.00;;;5.77;;
68921;SDS011;55959;51.244;5.724;2022-11-15T02:52:00;6.47;;;5.80;;
68921;SDS011;55959;51.244;5.724;2022-11-15T02:54:28;6.27;;;5.67;;
68921;SDS011;55959;51.244;5.724;2022-11-15T02:57:06;7.43;;;6.23;;
68921;SDS011;55959;51.244;5.724;2022-11-15T03:00:21;7.97;;;5.77;;
68921;SDS011;55959;51.244;5.724;2022-11-15T03:02:40;7.13;;;5.50;;
68921;SDS011;55959;51.244;5.724;2022-11-15T03:11:31;6.47;;;5.83;;
68921;SDS011;55959;51.244;5.724;2022-11-15T03:14:08;8.00;;;6.60;;
68921;SDS011;55959;51.244;5.724;2022-11-15T03:16:37;6.87;;;6.10;;
68921;SDS011;55959;51.244;5.724;2022-11-15T03:22:15;6.70;;;6.00;;
68921;SDS011;55959;51.244;5.724;2022-11-15T03:24:46;6.60;;;6.00;;
68921;SDS011;55959;51.244;5.724;2022-11-15T03:27:17;6.80;;;5.93;;
68921;SDS011;55959;51.244;5.724;2022-11-15T03:29:52;7.17;;;5.63;;
68921;SDS011;55959;51.244;5.724;2022-11-15T03:32:31;6.67;;;5.97;;
68921;SDS011;55959;51.244;5.724;2022-11-15T03:35:09;8.80;;;6.10;;
68921;SDS011;55959;51.244;5.724;2022-11-15T03:40:30;6.37;;;5.77;;
68921;SDS011;55959;51.244;5.724;2022-11-15T03:43:10;7.20;;;5.47;;
68921;SDS011;55959;51.244;5.724;2022-11-15T03:45:57;5.70;;;5.17;;
68921;SDS011;55959;51.244;5.724;2022-11-15T03:48:30;5.90;;;5.27;;
68921;SDS011;55959;51.244;5.724;2022-11-15T03:51:03;6.67;;;5.73;;
68921;SDS011;55959;51.244;5.724;2022-11-15T03:53:30;7.13;;;6.37;;
68921;SDS011;55959;51.244;5.724;2022-11-15T03:55:56;6.00;;;5.40;;
68921;SDS011;55959;51.244;5.724;2022-11-15T03:58:22;5.73;;;5.07;;
68921;SDS011;55959;51.244;5.724;2022-11-15T04:00:48;5.50;;;5.00;;
68921;SDS011;55959;51.244;5.724;2022-11-15T04:03:14;6.90;;;5.73;;
68921;SDS011;55959;51.244;5.724;2022-11-15T04:05:40;6.93;;;6.27;;
68921;SDS011;55959;51.244;5.724;2022-11-15T04:08:05;6.73;;;6.03;;
68921;SDS011;55959;51.244;5.724;2022-11-15T04:10:31;6.20;;;5.50;;
68921;SDS011;55959;51.244;5.724;2022-11-15T04:12:57;6.07;;;5.30;;
68921;SDS011;55959;51.244;5.724;2022-11-15T04:15:23;6.03;;;5.43;;
68921;SDS011;55959;51.244;5.724;2022-11-15T04:17:50;7.00;;;5.30;;
68921;SDS011;55959;51.244;5.724;2022-11-15T04:20:19;5.33;;;4.77;;
68921;SDS011;55959;51.244;5.724;2022-11-15T04:23:07;5.33;;;4.90;;
68921;SDS011;55959;51.244;5.724;2022-11-15T04:26:04;5.67;;;4.70;;
68921;SDS011;55959;51.244;5.724;2022-11-15T04:28:44;6.00;;;5.40;;
68921;SDS011;55959;51.244;5.724;2022-11-15T04:31:29;5.77;;;5.17;;
68921;SDS011;55959;51.244;5.724;2022-11-15T04:33:55;6.53;;;5.50;;
68921;SDS011;55959;51.244;5.724;2022-11-15T04:36:21;5.03;;;4.63;;
68921;SDS011;55959;51.244;5.724;2022-11-15T04:39:06;6.53;;;4.40;;
68921;SDS011;55959;51.244;5.724;2022-11-15T04:41:32;5.53;;;5.00;;
68921;SDS011;55959;51.244;5.724;2022-11-15T04:43:58;5.03;;;4.53;;
68921;SDS011;55959;51.244;5.724;2022-11-15T04:46:24;6.67;;;5.63;;
68921;SDS011;55959;51.244;5.724;2022-11-15T04:48:51;5.47;;;4.97;;
68921;SDS011;55959;51.244;5.724;2022-11-15T04:51:17;6.27;;;4.60;;
68921;SDS011;55959;51.244;5.724;2022-11-15T04:53:43;5.47;;;5.00;;
68921;SDS011;55959;51.244;5.724;2022-11-15T04:56:09;6.57;;;5.03;;
68921;SDS011;55959;51.244;5.724;2022-11-15T04:58:35;5.47;;;4.97;;
68921;SDS011;55959;51.244;5.724;2022-11-15T05:01:11;6.20;;;5.40;;
68921;SDS011;55959;51.244;5.724;2022-11-15T05:03:41;5.07;;;4.60;;
68921;SDS011;55959;51.244;5.724;2022-11-15T05:06:27;5.20;;;4.70;;
68921;SDS011;55959;51.244;5.724;2022-11-15T05:08:53;5.10;;;4.40;;
68921;SDS011;55959;51.244;5.724;2022-11-15T05:11:19;4.97;;;4.57;;
68921;SDS011;55959;51.244;5.724;2022-11-15T05:13:45;5.10;;;4.67;;
68921;SDS011;55959;51.244;5.724;2022-11-15T05:16:11;5.23;;;4.43;;
68921;SDS011;55959;51.244;5.724;2022-11-15T05:18:37;4.60;;;4.20;;
68921;SDS011;55959;51.244;5.724;2022-11-15T05:21:06;5.57;;;3.80;;
68921;SDS011;55959;51.244;5.724;2022-11-15T05:23:34;5.13;;;4.60;;
68921;SDS011;55959;51.244;5.724;2022-11-15T05:26:00;5.53;;;4.40;;
68921;SDS011;55959;51.244;5.724;2022-11-15T05:28:27;5.13;;;4.57;;
68921;SDS011;55959;51.244;5.724;2022-11-15T05:30:53;5.10;;;4.67;;
68921;SDS011;55959;51.244;5.724;2022-11-15T05:33:18;5.27;;;4.37;;
68921;SDS011;55959;51.244;5.724;2022-11-15T05:35:46;5.40;;;4.10;;
68921;SDS011;55959;51.244;5.724;2022-11-15T05:38:22;5.63;;;4.33;;
68921;SDS011;55959;51.244;5.724;2022-11-15T05:40:48;5.57;;;4.53;;
68921;SDS011;55959;51.244;5.724;2022-11-15T05:43:15;4.90;;;4.37;;
68921;SDS011;55959;51.244;5.724;2022-11-15T05:45:41;4.93;;;4.40;;
68921;SDS011;55959;51.244;5.724;2022-11-15T05:48:07;4.90;;;4.40;;
68921;SDS011;55959;51.244;5.724;2022-11-15T05:50:36;5.23;;;4.73;;
68921;SDS011;55959;51.244;5.724;2022-11-15T05:53:06;5.60;;;4.80;;
68921;SDS011;55959;51.244;5.724;2022-11-15T05:55:32;6.40;;;5.10;;
68921;SDS011;55959;51.244;5.724;2022-11-15T05:57:59;4.73;;;4.33;;
68921;SDS011;55959;51.244;5.724;2022-11-15T06:00:25;4.60;;;4.10;;
68921;SDS011;55959;51.244;5.724;2022-11-15T06:02:51;5.33;;;3.80;;
68921;SDS011;55959;51.244;5.724;2022-11-15T06:05:17;6.87;;;5.23;;
68921;SDS011;55959;51.244;5.724;2022-11-15T06:07:43;5.33;;;4.73;;
68921;SDS011;55959;51.244;5.724;2022-11-15T06:10:09;4.07;;;3.77;;
68921;SDS011;55959;51.244;5.724;2022-11-15T06:12:35;4.10;;;3.70;;
68921;SDS011;55959;51.244;5.724;2022-11-15T06:15:00;3.47;;;3.10;;
68921;SDS011;55959;51.244;5.724;2022-11-15T06:17:27;4.27;;;3.50;;
68921;SDS011;55959;51.244;5.724;2022-11-15T06:19:53;3.83;;;2.40;;
68921;SDS011;55959;51.244;5.724;2022-11-15T06:22:19;3.00;;;2.70;;
68921;SDS011;55959;51.244;5.724;2022-11-15T06:24:45;4.33;;;3.13;;
68921;SDS011;55959;51.244;5.724;2022-11-15T06:27:11;4.47;;;2.83;;
68921;SDS011;55959;51.244;5.724;2022-11-15T06:29:37;4.40;;;2.90;;
68921;SDS011;55959;51.244;5.724;2022-11-15T06:32:03;2.93;;;2.37;;
68921;SDS011;55959;51.244;5.724;2022-11-15T06:34:29;3.27;;;2.97;;
68921;SDS011;55959;51.244;5.724;2022-11-15T06:36:55;3.00;;;2.70;;
68921;SDS011;55959;51.244;5.724;2022-11-15T06:39:20;2.40;;;2.20;;
68921;SDS011;55959;51.244;5.724;2022-11-15T06:41:46;3.37;;;3.00;;
68921;SDS011;55959;51.244;5.724;2022-11-15T06:44:12;3.37;;;2.83;;
68921;SDS011;55959;51.244;5.724;2022-11-15T06:46:38;3.57;;;2.60;;
68921;SDS011;55959;51.244;5.724;2022-11-15T06:49:03;3.60;;;2.60;;
68921;SDS011;55959;51.244;5.724;2022-11-15T06:51:29;4.70;;;2.70;;
68921;SDS011;55959;51.244;5.724;2022-11-15T06:53:55;3.07;;;2.20;;
68921;SDS011;55959;51.244;5.724;2022-11-15T06:56:21;3.00;;;2.00;;
68921;SDS011;55959;51.244;5.724;2022-11-15T06:58:46;3.23;;;2.00;;
68921;SDS011;55959;51.244;5.724;2022-11-15T07:01:12;2.37;;;2.17;;
68921;SDS011;55959;51.244;5.724;2022-11-15T07:03:39;2.70;;;1.90;;
68921;SDS011;55959;51.244;5.724;2022-11-15T07:06:07;2.07;;;1.83;;
68921;SDS011;55959;51.244;5.724;2022-11-15T07:08:34;2.90;;;2.17;;
68921;SDS011;55959;51.244;5.724;2022-11-15T07:11:01;2.50;;;2.30;;
68921;SDS011;55959;51.244;5.724;2022-11-15T07:13:30;2.00;;;1.80;;
68921;SDS011;55959;51.244;5.724;2022-11-15T07:16:04;3.23;;;1.93;;
68921;SDS011;55959;51.244;5.724;2022-11-15T07:18:39;2.47;;;2.27;;
68921;SDS011;55959;51.244;5.724;2022-11-15T07:21:06;2.70;;;1.83;;
68921;SDS011;55959;51.244;5.724;2022-11-15T07:23:37;3.53;;;2.20;;
68921;SDS011;55959;51.244;5.724;2022-11-15T07:26:06;3.40;;;2.17;;
68921;SDS011;55959;51.244;5.724;2022-11-15T07:28:33;3.30;;;2.27;;
68921;SDS011;55959;51.244;5.724;2022-11-15T07:31:01;3.13;;;2.27;;
68921;SDS011;55959;51.244;5.724;2022-11-15T07:33:29;3.23;;;2.70;;
68921;SDS011;55959;51.244;5.724;2022-11-15T07:35:58;3.60;;;3.10;;
68921;SDS011;55959;51.244;5.724;2022-11-15T07:38:26;4.90;;;3.20;;
68921;SDS011;55959;51.244;5.724;2022-11-15T07:40:57;2.70;;;2.37;;
68921;SDS011;55959;51.244;5.724;2022-11-15T07:43:25;5.17;;;2.80;;
68921;SDS011;55959;51.244;5.724;2022-11-15T07:45:52;6.53;;;3.10;;
68921;SDS011;55959;51.244;5.724;2022-11-15T07:48:19;2.63;;;2.20;;
68921;SDS011;55959;51.244;5.724;2022-11-15T07:50:44;2.90;;;2.03;;
68921;SDS011;55959;51.244;5.724;2022-11-15T07:53:10;2.60;;;2.40;;
68921;SDS011;55959;51.244;5.724;2022-11-15T07:55:36;4.20;;;2.20;;
68921;SDS011;55959;51.244;5.724;2022-11-15T07:58:05;2.27;;;1.70;;
68921;SDS011;55959;51.244;5.724;2022-11-15T08:00:35;2.93;;;2.60;;
68921;SDS011;55959;51.244;5.724;2022-11-15T08:03:06;2.67;;;2.20;;
68921;SDS011;55959;51.244;5.724;2022-11-15T08:05:35;3.17;;;2.23;;
68921;SDS011;55959;51.244;5.724;2022-11-15T08:08:02;3.37;;;2.10;;
68921;SDS011;55959;51.244;5.724;2022-11-15T08:10:28;3.00;;;2.43;;
68921;SDS011;55959;51.244;5.724;2022-11-15T08:12:58;2.33;;;2.00;;
68921;SDS011;55959;51.244;5.724;2022-11-15T08:15:28;3.70;;;2.30;;
68921;SDS011;55959;51.244;5.724;2022-11-15T08:17:59;2.57;;;2.17;;
68921;SDS011;55959;51.244;5.724;2022-11-15T08:20:33;2.97;;;2.30;;
68921;SDS011;55959;51.244;5.724;2022-11-15T08:23:00;2.37;;;1.83;;
68921;SDS011;55959;51.244;5.724;2022-11-15T08:25:28;2.90;;;2.00;;
68921;SDS011;55959;51.244;5.724;2022-11-15T08:27:56;2.43;;;1.80;;
68921;SDS011;55959;51.244;5.724;2022-11-15T08:30:25;3.03;;;2.40;;
68921;SDS011;55959;51.244;5.724;2022-11-15T08:32:52;3.77;;;2.10;;
68921;SDS011;55959;51.244;5.724;2022-11-15T08:35:19;2.33;;;1.97;;
68921;SDS011;55959;51.244;5.724;2022-11-15T08:37:46;2.87;;;2.17;;
68921;SDS011;55959;51.244;5.724;2022-11-15T08:40:12;2.23;;;1.93;;
68921;SDS011;55959;51.244;5.724;2022-11-15T08:42:38;3.83;;;2.40;;
68921;SDS011;55959;51.244;5.724;2022-11-15T08:45:05;2.97;;;2.00;;
68921;SDS011;55959;51.244;5.724;2022-11-15T08:47:32;2.27;;;1.90;;
68921;SDS011;55959;51.244;5.724;2022-11-15T08:49:58;3.10;;;1.70;;
68921;SDS011;55959;51.244;5.724;2022-11-15T08:52:24;1.80;;;1.60;;
68921;SDS011;55959;51.244;5.724;2022-11-15T08:54:50;3.70;;;2.13;;
68921;SDS011;55959;51.244;5.724;2022-11-15T08:57:16;2.20;;;1.60;;
68921;SDS011;55959;51.244;5.724;2022-11-15T08:59:42;2.57;;;1.40;;
68921;SDS011;55959;51.244;5.724;2022-11-15T09:02:14;2.30;;;1.00;;
68921;SDS011;55959;51.244;5.724;2022-11-15T09:04:40;3.63;;;1.67;;
68921;SDS011;55959;51.244;5.724;2022-11-15T09:07:07;1.70;;;1.40;;
68921;SDS011;55959;51.244;5.724;2022-11-15T09:09:35;3.00;;;1.67;;
68921;SDS011;55959;51.244;5.724;2022-11-15T09:12:01;2.93;;;1.50;;
68921;SDS011;55959;51.244;5.724;2022-11-15T09:14:26;1.50;;;1.30;;
68921;SDS011;55959;51.244;5.724;2022-11-15T09:16:52;2.50;;;1.53;;
68921;SDS011;55959;51.244;5.724;2022-11-15T09:19:18;2.20;;;1.57;;
68921;SDS011;55959;51.244;5.724;2022-11-15T09:21:43;2.47;;;1.30;;
68921;SDS011;55959;51.244;5.724;2022-11-15T09:24:09;1.40;;;1.10;;
68921;SDS011;55959;51.244;5.724;2022-11-15T09:26:35;3.03;;;1.30;;
68921;SDS011;55959;51.244;5.724;2022-11-15T09:29:00;2.73;;;1.07;;
68921;SDS011;55959;51.244;5.724;2022-11-15T09:31:27;2.30;;;1.10;;
68921;SDS011;55959;51.244;5.724;2022-11-15T09:33:54;3.17;;;1.17;;
68921;SDS011;55959;51.244;5.724;2022-11-15T09:36:20;3.23;;;1.30;;
68921;SDS011;55959;51.244;5.724;2022-11-15T09:38:46;3.53;;;1.30;;
68921;SDS011;55959;51.244;5.724;2022-11-15T09:43:50;4.53;;;1.47;;
68921;SDS011;55959;51.244;5.724;2022-11-15T09:46:27;2.80;;;1.23;;
68921;SDS011;55959;51.244;5.724;2022-11-15T09:49:26;2.50;;;1.07;;
68921;SDS011;55959;51.244;5.724;2022-11-15T09:51:54;3.80;;;1.13;;
68921;SDS011;55959;51.244;5.724;2022-11-15T09:56:52;2.60;;;0.83;;
68921;SDS011;55959;51.244;5.724;2022-11-15T10:05:32;2.30;;;1.00;;
68921;SDS011;55959;51.244;5.724;2022-11-15T10:10:53;2.13;;;1.10;;
68921;SDS011;55959;51.244;5.724;2022-11-15T10:13:23;3.27;;;1.10;;
68921;SDS011;55959;51.244;5.724;2022-11-15T10:15:54;1.27;;;0.70;;
68921;SDS011;55959;51.244;5.724;2022-11-15T10:21:27;1.80;;;1.20;;
68921;SDS011;55959;51.244;5.724;2022-11-15T10:24:12;3.30;;;1.13;;
68921;SDS011;55959;51.244;5.724;2022-11-15T10:26:47;1.57;;;0.80;;
68921;SDS011;55959;51.244;5.724;2022-11-15T10:29:20;1.87;;;0.87;;
68921;SDS011;55959;51.244;5.724;2022-11-15T10:31:47;1.97;;;1.20;;
68921;SDS011;55959;51.244;5.724;2022-11-15T10:34:17;2.90;;;1.40;;
68921;SDS011;55959;51.244;5.724;2022-11-15T10:36:46;2.50;;;1.20;;
68921;SDS011;55959;51.244;5.724;2022-11-15T10:39:19;2.87;;;0.90;;
68921;SDS011;55959;51.244;5.724;2022-11-15T10:41:44;2.43;;;1.03;;
68921;SDS011;55959;51.244;5.724;2022-11-15T10:46:42;3.50;;;0.97;;
68921;SDS011;55959;51.244;5.724;2022-11-15T10:49:17;1.77;;;0.87;;
68921;SDS011;55959;51.244;5.724;2022-11-15T10:54:44;2.03;;;0.97;;
68921;SDS011;55959;51.244;5.724;2022-11-15T10:57:16;1.93;;;0.70;;
68921;SDS011;55959;51.244;5.724;2022-11-15T10:59:47;1.80;;;0.90;;
68921;SDS011;55959;51.244;5.724;2022-11-15T11:08:19;3.33;;;0.93;;
68921;SDS011;55959;51.244;5.724;2022-11-15T11:10:52;3.57;;;1.07;;
68921;SDS011;55959;51.244;5.724;2022-11-15T11:13:34;3.17;;;1.00;;
68921;SDS011;55959;51.244;5.724;2022-11-15T11:31:02;3.23;;;1.10;;
68921;SDS011;55959;51.244;5.724;2022-11-15T11:36:59;4.20;;;0.97;;
68921;SDS011;55959;51.244;5.724;2022-11-15T11:39:47;2.00;;;0.97;;
68921;SDS011;55959;51.244;5.724;2022-11-15T11:48:00;2.70;;;1.10;;
68921;SDS011;55959;51.244;5.724;2022-11-15T11:50:32;1.93;;;0.90;;
68921;SDS011;55959;51.244;5.724;2022-11-15T11:55:54;2.33;;;0.80;;
68921;SDS011;55959;51.244;5.724;2022-11-15T11:58:29;2.60;;;1.00;;
68921;SDS011;55959;51.244;5.724;2022-11-15T12:06:24;3.30;;;0.80;;
68921;SDS011;55959;51.244;5.724;2022-11-15T12:09:03;1.23;;;0.60;;
68921;SDS011;55959;51.244;5.724;2022-11-15T12:14:54;2.07;;;0.90;;
68921;SDS011;55959;51.244;5.724;2022-11-15T12:17:25;2.17;;;0.60;;
68921;SDS011;55959;51.244;5.724;2022-11-15T12:19:57;1.63;;;0.80;;
68921;SDS011;55959;51.244;5.724;2022-11-15T12:27:50;2.43;;;0.67;;
68921;SDS011;55959;51.244;5.724;2022-11-15T12:30:25;2.87;;;1.13;;
68921;SDS011;55959;51.244;5.724;2022-11-15T12:33:15;1.47;;;0.60;;
68921;SDS011;55959;51.244;5.724;2022-11-15T12:36:07;1.47;;;0.70;;
68921;SDS011;55959;51.244;5.724;2022-11-15T12:38:52;1.23;;;0.53;;
68921;SDS011;55959;51.244;5.724;2022-11-15T12:41:37;1.40;;;0.60;;
68921;SDS011;55959;51.244;5.724;2022-11-15T12:44:05;2.30;;;0.70;;
68921;SDS011;55959;51.244;5.724;2022-11-15T13:04:52;3.57;;;0.50;;
68921;SDS011;55959;51.244;5.724;2022-11-15T13:22:58;2.07;;;0.80;;
68921;SDS011;55959;51.244;5.724;2022-11-15T13:28:39;1.00;;;0.57;;
68921;SDS011;55959;51.244;5.724;2022-11-15T13:33:44;1.50;;;0.70;;
68921;SDS011;55959;51.244;5.724;2022-11-15T13:36:15;2.57;;;0.80;;
68921;SDS011;55959;51.244;5.724;2022-11-15T13:39:32;1.70;;;0.73;;
68921;SDS011;55959;51.244;5.724;2022-11-15T13:41:55;1.90;;;0.60;;
68921;SDS011;55959;51.244;5.724;2022-11-15T13:44:23;2.33;;;0.90;;
68921;SDS011;55959;51.244;5.724;2022-11-15T13:47:14;2.00;;;0.50;;
68921;SDS011;55959;51.244;5.724;2022-11-15T13:49:45;1.57;;;0.90;;
68921;SDS011;55959;51.244;5.724;2022-11-15T13:52:12;2.03;;;0.70;;
68921;SDS011;55959;51.244;5.724;2022-11-15T13:57:25;2.80;;;0.80;;
68921;SDS011;55959;51.244;5.724;2022-11-15T13:59:56;2.47;;;0.60;;
68921;SDS011;55959;51.244;5.724;2022-11-15T14:02:31;1.63;;;0.80;;
68921;SDS011;55959;51.244;5.724;2022-11-15T14:05:03;2.80;;;1.00;;
68921;SDS011;55959;51.244;5.724;2022-11-15T14:07:53;1.77;;;0.70;;
68921;SDS011;55959;51.244;5.724;2022-11-15T14:10:28;1.97;;;0.70;;
68921;SDS011;55959;51.244;5.724;2022-11-15T14:13:01;2.23;;;1.07;;
68921;SDS011;55959;51.244;5.724;2022-11-15T14:15:35;2.80;;;0.70;;
68921;SDS011;55959;51.244;5.724;2022-11-15T14:18:03;3.60;;;0.83;;
68921;SDS011;55959;51.244;5.724;2022-11-15T14:20:33;1.00;;;0.70;;
68921;SDS011;55959;51.244;5.724;2022-11-15T14:25:55;1.03;;;0.70;;
68921;SDS011;55959;51.244;5.724;2022-11-15T14:30:48;3.13;;;1.10;;
68921;SDS011;55959;51.244;5.724;2022-11-15T14:33:21;1.60;;;1.03;;
68921;SDS011;55959;51.244;5.724;2022-11-15T14:35:54;2.77;;;1.20;;
68921;SDS011;55959;51.244;5.724;2022-11-15T14:38:22;2.10;;;0.80;;
68921;SDS011;55959;51.244;5.724;2022-11-15T14:40:49;2.93;;;1.00;;
68921;SDS011;55959;51.244;5.724;2022-11-15T14:43:16;3.07;;;1.00;;
68921;SDS011;55959;51.244;5.724;2022-11-15T14:45:41;2.27;;;1.00;;
68921;SDS011;55959;51.244;5.724;2022-11-15T14:48:07;4.30;;;1.17;;
68921;SDS011;55959;51.244;5.724;2022-11-15T14:50:33;2.77;;;1.07;;
68921;SDS011;55959;51.244;5.724;2022-11-15T14:53:00;1.43;;;0.87;;
68921;SDS011;55959;51.244;5.724;2022-11-15T14:55:28;3.47;;;1.20;;
68921;SDS011;55959;51.244;5.724;2022-11-15T14:58:01;1.70;;;1.03;;
68921;SDS011;55959;51.244;5.724;2022-11-15T15:00:29;2.37;;;1.10;;
68921;SDS011;55959;51.244;5.724;2022-11-15T15:02:56;1.70;;;0.80;;
68921;SDS011;55959;51.244;5.724;2022-11-15T15:05:24;1.47;;;0.90;;
68921;SDS011;55959;51.244;5.724;2022-11-15T15:07:51;1.53;;;0.93;;
68921;SDS011;55959;51.244;5.724;2022-11-15T15:10:20;1.40;;;1.10;;
68921;SDS011;55959;51.244;5.724;2022-11-15T15:12:46;1.67;;;1.00;;
68921;SDS011;55959;51.244;5.724;2022-11-15T15:15:16;1.83;;;1.00;;
68921;SDS011;55959;51.244;5.724;2022-11-15T15:17:48;2.10;;;1.00;;
68921;SDS011;55959;51.244;5.724;2022-11-15T15:20:14;1.83;;;1.30;;
68921;SDS011;55959;51.244;5.724;2022-11-15T15:22:40;2.40;;;1.17;;
68921;SDS011;55959;51.244;5.724;2022-11-15T15:25:48;2.80;;;1.03;;
68921;SDS011;55959;51.244;5.724;2022-11-15T15:27:58;2.67;;;1.20;;
68921;SDS011;55959;51.244;5.724;2022-11-15T15:30:25;2.17;;;1.13;;
68921;SDS011;55959;51.244;5.724;2022-11-15T15:32:53;2.47;;;1.10;;
68921;SDS011;55959;51.244;5.724;2022-11-15T15:35:19;1.50;;;1.00;;
68921;SDS011;55959;51.244;5.724;2022-11-15T15:37:46;1.37;;;0.90;;
68921;SDS011;55959;51.244;5.724;2022-11-15T15:40:17;1.50;;;1.00;;
68921;SDS011;55959;51.244;5.724;2022-11-15T15:42:48;1.40;;;1.30;;
68921;SDS011;55959;51.244;5.724;2022-11-15T15:45:15;1.70;;;1.00;;
68921;SDS011;55959;51.244;5.724;2022-11-15T15:47:43;2.03;;;1.30;;
68921;SDS011;55959;51.244;5.724;2022-11-15T15:53:14;2.30;;;1.23;;
68921;SDS011;55959;51.244;5.724;2022-11-15T15:55:40;0.97;;;0.80;;
68921;SDS011;55959;51.244;5.724;2022-11-15T15:58:06;3.33;;;1.10;;
68921;SDS011;55959;51.244;5.724;2022-11-15T16:00:33;1.03;;;0.83;;
68921;SDS011;55959;51.244;5.724;2022-11-15T16:02:58;1.60;;;1.20;;
68921;SDS011;55959;51.244;5.724;2022-11-15T16:05:24;1.57;;;1.00;;
68921;SDS011;55959;51.244;5.724;2022-11-15T16:07:51;1.83;;;1.13;;
68921;SDS011;55959;51.244;5.724;2022-11-15T16:10:20;1.83;;;1.00;;
68921;SDS011;55959;51.244;5.724;2022-11-15T16:12:46;1.60;;;1.10;;
68921;SDS011;55959;51.244;5.724;2022-11-15T16:15:11;1.70;;;1.07;;
68921;SDS011;55959;51.244;5.724;2022-11-15T16:17:38;1.40;;;1.23;;
68921;SDS011;55959;51.244;5.724;2022-11-15T16:20:15;2.27;;;1.23;;
68921;SDS011;55959;51.244;5.724;2022-11-15T16:23:19;0.90;;;0.90;;
68921;SDS011;55959;51.244;5.724;2022-11-15T16:25:47;1.70;;;1.20;;
68921;SDS011;55959;51.244;5.724;2022-11-15T16:28:27;1.43;;;1.00;;
68921;SDS011;55959;51.244;5.724;2022-11-15T16:31:05;2.00;;;1.20;;
68921;SDS011;55959;51.244;5.724;2022-11-15T16:33:35;3.90;;;1.90;;
68921;SDS011;55959;51.244;5.724;2022-11-15T16:36:02;1.83;;;1.63;;
68921;SDS011;55959;51.244;5.724;2022-11-15T16:38:30;2.70;;;1.53;;
68921;SDS011;55959;51.244;5.724;2022-11-15T16:40:57;2.33;;;1.17;;
68921;SDS011;55959;51.244;5.724;2022-11-15T16:43:22;1.50;;;1.17;;
68921;SDS011;55959;51.244;5.724;2022-11-15T16:45:49;1.93;;;1.47;;
68921;SDS011;55959;51.244;5.724;2022-11-15T16:48:22;2.23;;;1.43;;
68921;SDS011;55959;51.244;5.724;2022-11-15T16:50:56;1.63;;;1.30;;
68921;SDS011;55959;51.244;5.724;2022-11-15T16:53:23;2.53;;;1.30;;
68921;SDS011;55959;51.244;5.724;2022-11-15T16:55:51;2.47;;;1.50;;
68921;SDS011;55959;51.244;5.724;2022-11-15T16:58:16;2.80;;;1.43;;
68921;SDS011;55959;51.244;5.724;2022-11-15T17:00:42;2.23;;;1.60;;
68921;SDS011;55959;51.244;5.724;2022-11-15T17:03:08;2.47;;;1.50;;
68921;SDS011;55959;51.244;5.724;2022-11-15T17:05:34;2.50;;;1.77;;
68921;SDS011;55959;51.244;5.724;2022-11-15T17:08:00;2.87;;;1.70;;
68921;SDS011;55959;51.244;5.724;2022-11-15T17:10:26;3.17;;;1.80;;
68921;SDS011;55959;51.244;5.724;2022-11-15T17:12:52;2.37;;;1.87;;
68921;SDS011;55959;51.244;5.724;2022-11-15T17:15:20;3.30;;;1.80;;
68921;SDS011;55959;51.244;5.724;2022-11-15T17:17:52;3.30;;;1.90;;
68921;SDS011;55959;51.244;5.724;2022-11-15T17:20:19;3.77;;;2.50;;
68921;SDS011;55959;51.244;5.724;2022-11-15T17:22:48;1.77;;;1.67;;
68921;SDS011;55959;51.244;5.724;2022-11-15T17:25:14;3.07;;;1.80;;
68921;SDS011;55959;51.244;5.724;2022-11-15T17:27:40;2.10;;;1.90;;
68921;SDS011;55959;51.244;5.724;2022-11-15T17:30:07;2.90;;;2.10;;
68921;SDS011;55959;51.244;5.724;2022-11-15T17:32:35;3.10;;;2.27;;
68921;SDS011;55959;51.244;5.724;2022-11-15T17:35:01;2.40;;;2.20;;
68921;SDS011;55959;51.244;5.724;2022-11-15T17:37:30;3.47;;;2.27;;
68921;SDS011;55959;51.244;5.724;2022-11-15T17:39:57;2.43;;;1.77;;